Impacts TAF Board
For situational awareness. Not to be used for flight planning purposes.
IDs:

KFLL - Ft Lauderdale-Hollyw, FL, US

Issued at 0856 UTC 25 May 2020
Updated at 0919 UTC 25 May 2020
Potential Impact None Slight Moderate High
Time0903Z 25/10Z 25/11Z 25/12Z 25/13Z 25/14Z 25/15Z 25/16Z 25/17Z 25/18Z 25/19Z 25/20Z 25/21Z 25/22Z>>
Type OBS PRVL PRVL PRVL PRVL PRVL PRVL PRVL PRVL PRVL PRVL PRVL PRVL PRVL
VIS 4 6 6 6 6 6 6 6 6 6 6 6 6 6
CIG 22 25 25 25 25 25 25 25 25 25 25 25 25 25
Cover BKN OVC OVC OVC OVC OVC OVC OVC OVC OVC OVC OVC OVC OVC
FltCat MVFR MVFR MVFR MVFR MVFR MVFR MVFR MVFR MVFR MVFR MVFR MVFR MVFR MVFR
WX RA BR SHRA VCTS SHRA VCTS SHRA VCTS SHRA VCTS SHRA VCTS SHRA VCTS SHRA VCTS SHRA VCTS SHRA VCTS SHRA VCTS SHRA VCTS SHRA VCTS SHRA VCTS
WDir 130 120 120 120 120 120 120 120 120 120 120 120 120 120
WSpd 16 12 12 12 12 12 12 12 12 12 12 12 12 12
WGst -- -- -- -- -- -- -- -- -- -- -- -- -- --
Raw TAF
KFLL 250856Z 2509/2612 12012KT 6SM SHRA VCTS SCT010CB BKN025 OVC050
  FM260000 13015KT P6SM VCTS SCT020CB BKN040 OVC100
  FM260500 17010KT P6SM VCSH SCT025 BKN050


Raw METAR
KFLL 250903Z 13016KT 4SM RA BR SCT015 BKN022 BKN037 26/24 A2985 RMK AO2 P0000 T02560239 $
KFLL 250853Z 12016KT 2 1/2SM +RA BR SCT015 BKN022 BKN037 26/24 A2985 RMK AO2 SLP107 P0006 60032 T02560239 56013 $
KFLL 250753Z 12013G20KT 2SM +RA BR FEW012 BKN018 OVC048 25/24 A2986 RMK AO2 SLP109 P0012 T02500239 $
KFLL 250653Z 10016KT 2SM +RA BR FEW012 BKN018 OVC065 25/23 A2987 RMK AO2 PK WND 10026/0613 SLP114 P0014 T02500233 $

METAR Board
Radar Display
Forecast Discussion
For situational awareness. Not to be used for flight planning purposes.